sensor_id;sensor_type;location;lat;lon;timestamp;P1;durP1;ratioP1;P2;durP2;ratioP2
81908;SDS011;71372;43.514;1.512;2024-03-02T00:00:20;9.80;;;3.38;;
81908;SDS011;71372;43.514;1.512;2024-03-02T00:02:51;7.57;;;4.07;;
81908;SDS011;71372;43.514;1.512;2024-03-02T00:05:20;9.63;;;5.30;;
81908;SDS011;71372;43.514;1.512;2024-03-02T00:07:52;9.10;;;5.18;;
81908;SDS011;71372;43.514;1.512;2024-03-02T00:10:25;13.20;;;6.90;;
81908;SDS011;71372;43.514;1.512;2024-03-02T00:12:55;10.68;;;6.65;;
81908;SDS011;71372;43.514;1.512;2024-03-02T00:15:41;13.55;;;6.40;;
81908;SDS011;71372;43.514;1.512;2024-03-02T00:18:11;10.82;;;6.55;;
81908;SDS011;71372;43.514;1.512;2024-03-02T00:20:39;10.00;;;5.90;;
81908;SDS011;71372;43.514;1.512;2024-03-02T00:23:06;11.30;;;6.03;;
81908;SDS011;71372;43.514;1.512;2024-03-02T00:25:44;11.18;;;6.68;;
81908;SDS011;71372;43.514;1.512;2024-03-02T00:31:02;9.27;;;5.47;;
81908;SDS011;71372;43.514;1.512;2024-03-02T00:33:38;14.98;;;6.20;;
81908;SDS011;71372;43.514;1.512;2024-03-02T00:36:06;10.88;;;6.13;;
81908;SDS011;71372;43.514;1.512;2024-03-02T00:38:34;9.18;;;5.70;;
81908;SDS011;71372;43.514;1.512;2024-03-02T00:41:06;11.70;;;6.28;;
81908;SDS011;71372;43.514;1.512;2024-03-02T00:43:38;8.23;;;5.90;;
81908;SDS011;71372;43.514;1.512;2024-03-02T00:46:08;10.32;;;6.20;;
81908;SDS011;71372;43.514;1.512;2024-03-02T00:48:36;12.93;;;5.50;;
81908;SDS011;71372;43.514;1.512;2024-03-02T00:51:02;10.70;;;6.53;;
81908;SDS011;71372;43.514;1.512;2024-03-02T00:53:32;8.35;;;5.93;;
81908;SDS011;71372;43.514;1.512;2024-03-02T00:55:59;10.60;;;5.85;;
81908;SDS011;71372;43.514;1.512;2024-03-02T00:58:26;10.15;;;6.35;;
81908;SDS011;71372;43.514;1.512;2024-03-02T01:00:52;11.57;;;7.43;;
81908;SDS011;71372;43.514;1.512;2024-03-02T01:03:18;11.65;;;7.30;;
81908;SDS011;71372;43.514;1.512;2024-03-02T01:05:44;14.88;;;7.47;;
81908;SDS011;71372;43.514;1.512;2024-03-02T01:08:11;12.13;;;7.28;;
81908;SDS011;71372;43.514;1.512;2024-03-02T01:10:37;15.15;;;7.10;;
81908;SDS011;71372;43.514;1.512;2024-03-02T01:13:02;11.88;;;6.53;;
81908;SDS011;71372;43.514;1.512;2024-03-02T01:15:29;10.32;;;6.22;;
81908;SDS011;71372;43.514;1.512;2024-03-02T01:17:55;12.70;;;6.47;;
81908;SDS011;71372;43.514;1.512;2024-03-02T01:20:21;10.43;;;6.88;;
81908;SDS011;71372;43.514;1.512;2024-03-02T01:22:47;11.13;;;6.32;;
81908;SDS011;71372;43.514;1.512;2024-03-02T01:25:13;12.23;;;6.55;;
81908;SDS011;71372;43.514;1.512;2024-03-02T01:27:39;11.43;;;6.68;;
81908;SDS011;71372;43.514;1.512;2024-03-02T01:30:08;13.65;;;7.07;;
81908;SDS011;71372;43.514;1.512;2024-03-02T01:32:34;9.90;;;6.40;;
81908;SDS011;71372;43.514;1.512;2024-03-02T01:35:00;11.60;;;6.35;;
81908;SDS011;71372;43.514;1.512;2024-03-02T01:37:26;12.40;;;5.82;;
81908;SDS011;71372;43.514;1.512;2024-03-02T01:39:52;10.60;;;5.78;;
81908;SDS011;71372;43.514;1.512;2024-03-02T01:42:18;9.23;;;6.00;;
81908;SDS011;71372;43.514;1.512;2024-03-02T01:44:43;10.25;;;6.60;;
81908;SDS011;71372;43.514;1.512;2024-03-02T01:47:09;10.93;;;6.00;;
81908;SDS011;71372;43.514;1.512;2024-03-02T01:49:35;11.55;;;6.20;;
81908;SDS011;71372;43.514;1.512;2024-03-02T01:52:01;9.45;;;6.10;;
81908;SDS011;71372;43.514;1.512;2024-03-02T01:54:27;11.88;;;6.85;;
81908;SDS011;71372;43.514;1.512;2024-03-02T01:56:53;11.23;;;6.90;;
81908;SDS011;71372;43.514;1.512;2024-03-02T01:59:19;11.55;;;7.63;;
81908;SDS011;71372;43.514;1.512;2024-03-02T02:01:45;14.00;;;7.25;;
81908;SDS011;71372;43.514;1.512;2024-03-02T02:04:11;12.18;;;6.95;;
81908;SDS011;71372;43.514;1.512;2024-03-02T02:06:37;11.82;;;7.30;;
81908;SDS011;71372;43.514;1.512;2024-03-02T02:09:03;10.82;;;7.20;;
81908;SDS011;71372;43.514;1.512;2024-03-02T02:11:29;11.70;;;6.45;;
81908;SDS011;71372;43.514;1.512;2024-03-02T02:13:54;11.15;;;6.13;;
81908;SDS011;71372;43.514;1.512;2024-03-02T02:16:23;11.85;;;6.03;;
81908;SDS011;71372;43.514;1.512;2024-03-02T02:18:49;10.60;;;6.13;;
81908;SDS011;71372;43.514;1.512;2024-03-02T02:21:15;10.45;;;5.90;;
81908;SDS011;71372;43.514;1.512;2024-03-02T02:23:41;11.10;;;6.05;;
81908;SDS011;71372;43.514;1.512;2024-03-02T02:26:12;10.63;;;6.10;;
81908;SDS011;71372;43.514;1.512;2024-03-02T02:28:37;13.25;;;6.10;;
81908;SDS011;71372;43.514;1.512;2024-03-02T02:31:04;12.23;;;6.45;;
81908;SDS011;71372;43.514;1.512;2024-03-02T02:33:30;10.13;;;6.05;;
81908;SDS011;71372;43.514;1.512;2024-03-02T02:35:56;9.30;;;5.68;;
81908;SDS011;71372;43.514;1.512;2024-03-02T02:38:22;10.60;;;5.97;;
81908;SDS011;71372;43.514;1.512;2024-03-02T02:40:47;13.77;;;7.05;;
81908;SDS011;71372;43.514;1.512;2024-03-02T02:43:13;9.77;;;5.80;;
81908;SDS011;71372;43.514;1.512;2024-03-02T02:45:39;11.55;;;6.65;;
81908;SDS011;71372;43.514;1.512;2024-03-02T02:48:05;11.32;;;6.25;;
81908;SDS011;71372;43.514;1.512;2024-03-02T02:50:31;11.18;;;6.43;;
81908;SDS011;71372;43.514;1.512;2024-03-02T02:52:57;14.00;;;6.30;;
81908;SDS011;71372;43.514;1.512;2024-03-02T02:55:23;10.98;;;6.25;;
81908;SDS011;71372;43.514;1.512;2024-03-02T02:57:49;8.88;;;5.75;;
81908;SDS011;71372;43.514;1.512;2024-03-02T03:00:15;7.90;;;5.20;;
81908;SDS011;71372;43.514;1.512;2024-03-02T03:02:43;9.23;;;6.22;;
81908;SDS011;71372;43.514;1.512;2024-03-02T03:05:11;10.65;;;6.35;;
81908;SDS011;71372;43.514;1.512;2024-03-02T03:07:39;10.52;;;6.85;;
81908;SDS011;71372;43.514;1.512;2024-03-02T03:10:07;11.43;;;6.22;;
81908;SDS011;71372;43.514;1.512;2024-03-02T03:12:34;9.65;;;6.10;;
81908;SDS011;71372;43.514;1.512;2024-03-02T03:15:01;8.35;;;5.80;;
81908;SDS011;71372;43.514;1.512;2024-03-02T03:17:27;9.52;;;5.50;;
81908;SDS011;71372;43.514;1.512;2024-03-02T03:19:53;11.98;;;5.18;;
81908;SDS011;71372;43.514;1.512;2024-03-02T03:22:19;10.73;;;5.45;;
81908;SDS011;71372;43.514;1.512;2024-03-02T03:24:45;8.23;;;5.22;;
81908;SDS011;71372;43.514;1.512;2024-03-02T03:27:11;10.07;;;5.53;;
81908;SDS011;71372;43.514;1.512;2024-03-02T03:29:37;9.30;;;5.03;;
81908;SDS011;71372;43.514;1.512;2024-03-02T03:32:03;10.32;;;5.60;;
81908;SDS011;71372;43.514;1.512;2024-03-02T03:34:33;12.10;;;6.18;;
81908;SDS011;71372;43.514;1.512;2024-03-02T03:37:00;11.43;;;7.68;;
81908;SDS011;71372;43.514;1.512;2024-03-02T03:39:26;9.85;;;6.15;;
81908;SDS011;71372;43.514;1.512;2024-03-02T03:41:52;8.80;;;6.60;;
81908;SDS011;71372;43.514;1.512;2024-03-02T03:44:17;8.57;;;5.80;;
81908;SDS011;71372;43.514;1.512;2024-03-02T03:46:43;10.13;;;6.00;;
81908;SDS011;71372;43.514;1.512;2024-03-02T03:49:09;9.35;;;5.88;;
81908;SDS011;71372;43.514;1.512;2024-03-02T03:51:35;9.73;;;6.13;;
81908;SDS011;71372;43.514;1.512;2024-03-02T03:54:01;10.93;;;6.57;;
81908;SDS011;71372;43.514;1.512;2024-03-02T03:56:27;11.02;;;6.63;;
81908;SDS011;71372;43.514;1.512;2024-03-02T03:58:53;10.45;;;5.10;;
81908;SDS011;71372;43.514;1.512;2024-03-02T04:01:19;11.75;;;5.00;;
81908;SDS011;71372;43.514;1.512;2024-03-02T04:03:45;9.50;;;4.53;;
81908;SDS011;71372;43.514;1.512;2024-03-02T04:06:11;8.93;;;4.60;;
81908;SDS011;71372;43.514;1.512;2024-03-02T04:08:37;8.20;;;4.88;;
81908;SDS011;71372;43.514;1.512;2024-03-02T04:11:03;8.27;;;4.68;;
81908;SDS011;71372;43.514;1.512;2024-03-02T04:13:30;7.00;;;4.93;;
81908;SDS011;71372;43.514;1.512;2024-03-02T04:15:56;10.52;;;4.90;;
81908;SDS011;71372;43.514;1.512;2024-03-02T04:18:21;9.77;;;5.38;;
81908;SDS011;71372;43.514;1.512;2024-03-02T04:20:47;10.82;;;5.55;;
81908;SDS011;71372;43.514;1.512;2024-03-02T04:23:13;8.88;;;5.18;;
81908;SDS011;71372;43.514;1.512;2024-03-02T04:25:39;10.10;;;5.28;;
81908;SDS011;71372;43.514;1.512;2024-03-02T04:28:05;8.35;;;4.47;;
81908;SDS011;71372;43.514;1.512;2024-03-02T04:30:31;10.05;;;4.93;;
81908;SDS011;71372;43.514;1.512;2024-03-02T04:32:57;8.75;;;4.60;;
81908;SDS011;71372;43.514;1.512;2024-03-02T04:35:23;6.85;;;4.00;;
81908;SDS011;71372;43.514;1.512;2024-03-02T04:37:50;7.47;;;4.68;;
81908;SDS011;71372;43.514;1.512;2024-03-02T04:40:16;6.70;;;4.22;;
81908;SDS011;71372;43.514;1.512;2024-03-02T04:42:42;7.10;;;4.53;;
81908;SDS011;71372;43.514;1.512;2024-03-02T04:45:08;7.45;;;4.50;;
81908;SDS011;71372;43.514;1.512;2024-03-02T04:47:34;9.15;;;4.40;;
81908;SDS011;71372;43.514;1.512;2024-03-02T04:50:00;7.55;;;4.22;;
81908;SDS011;71372;43.514;1.512;2024-03-02T04:52:26;7.82;;;4.22;;
81908;SDS011;71372;43.514;1.512;2024-03-02T04:54:52;7.78;;;4.35;;
81908;SDS011;71372;43.514;1.512;2024-03-02T04:57:50;8.40;;;4.38;;
81908;SDS011;71372;43.514;1.512;2024-03-02T05:00:20;7.72;;;4.72;;
81908;SDS011;71372;43.514;1.512;2024-03-02T05:02:46;10.63;;;5.03;;
81908;SDS011;71372;43.514;1.512;2024-03-02T05:05:12;8.50;;;4.75;;
81908;SDS011;71372;43.514;1.512;2024-03-02T05:07:40;7.35;;;4.20;;
81908;SDS011;71372;43.514;1.512;2024-03-02T05:10:08;9.90;;;5.20;;
81908;SDS011;71372;43.514;1.512;2024-03-02T05:12:34;7.63;;;4.00;;
81908;SDS011;71372;43.514;1.512;2024-03-02T05:15:11;8.63;;;4.60;;
81908;SDS011;71372;43.514;1.512;2024-03-02T05:17:41;8.20;;;3.85;;
81908;SDS011;71372;43.514;1.512;2024-03-02T05:20:10;8.75;;;4.18;;
81908;SDS011;71372;43.514;1.512;2024-03-02T05:22:36;7.38;;;3.95;;
81908;SDS011;71372;43.514;1.512;2024-03-02T05:25:03;7.20;;;3.85;;
81908;SDS011;71372;43.514;1.512;2024-03-02T05:27:29;7.32;;;4.10;;
81908;SDS011;71372;43.514;1.512;2024-03-02T05:29:56;8.30;;;4.38;;
81908;SDS011;71372;43.514;1.512;2024-03-02T05:32:21;9.38;;;4.70;;
81908;SDS011;71372;43.514;1.512;2024-03-02T05:34:47;7.35;;;4.53;;
81908;SDS011;71372;43.514;1.512;2024-03-02T05:37:13;8.07;;;4.57;;
81908;SDS011;71372;43.514;1.512;2024-03-02T05:39:39;6.68;;;3.72;;
81908;SDS011;71372;43.514;1.512;2024-03-02T05:42:05;7.88;;;4.40;;
81908;SDS011;71372;43.514;1.512;2024-03-02T05:44:31;9.57;;;4.75;;
81908;SDS011;71372;43.514;1.512;2024-03-02T05:46:57;6.32;;;4.05;;
81908;SDS011;71372;43.514;1.512;2024-03-02T05:49:23;7.25;;;4.00;;
81908;SDS011;71372;43.514;1.512;2024-03-02T05:51:49;6.53;;;4.70;;
81908;SDS011;71372;43.514;1.512;2024-03-02T05:54:15;10.63;;;3.92;;
81908;SDS011;71372;43.514;1.512;2024-03-02T05:56:41;7.47;;;3.78;;
81908;SDS011;71372;43.514;1.512;2024-03-02T05:59:07;6.00;;;3.38;;
81908;SDS011;71372;43.514;1.512;2024-03-02T06:01:39;6.30;;;3.55;;
81908;SDS011;71372;43.514;1.512;2024-03-02T06:04:06;5.63;;;3.75;;
81908;SDS011;71372;43.514;1.512;2024-03-02T06:06:32;7.63;;;4.30;;
81908;SDS011;71372;43.514;1.512;2024-03-02T06:08:59;7.10;;;3.90;;
81908;SDS011;71372;43.514;1.512;2024-03-02T06:11:26;5.60;;;3.85;;
81908;SDS011;71372;43.514;1.512;2024-03-02T06:13:52;9.02;;;4.30;;
81908;SDS011;71372;43.514;1.512;2024-03-02T06:16:18;6.68;;;3.60;;
81908;SDS011;71372;43.514;1.512;2024-03-02T06:18:44;5.55;;;4.00;;
81908;SDS011;71372;43.514;1.512;2024-03-02T06:21:09;7.03;;;3.70;;
81908;SDS011;71372;43.514;1.512;2024-03-02T06:23:35;5.78;;;2.83;;
81908;SDS011;71372;43.514;1.512;2024-03-02T06:26:01;5.20;;;3.03;;
81908;SDS011;71372;43.514;1.512;2024-03-02T06:28:28;6.45;;;2.88;;
81908;SDS011;71372;43.514;1.512;2024-03-02T06:30:54;7.35;;;3.80;;
81908;SDS011;71372;43.514;1.512;2024-03-02T06:33:20;10.30;;;4.82;;
81908;SDS011;71372;43.514;1.512;2024-03-02T06:35:46;8.98;;;4.90;;
81908;SDS011;71372;43.514;1.512;2024-03-02T06:38:12;16.25;;;8.20;;
81908;SDS011;71372;43.514;1.512;2024-03-02T06:40:38;11.20;;;5.20;;
81908;SDS011;71372;43.514;1.512;2024-03-02T06:43:05;8.00;;;3.95;;
81908;SDS011;71372;43.514;1.512;2024-03-02T06:45:31;11.13;;;5.20;;
81908;SDS011;71372;43.514;1.512;2024-03-02T06:47:57;5.88;;;3.67;;
81908;SDS011;71372;43.514;1.512;2024-03-02T06:50:22;5.15;;;3.20;;
81908;SDS011;71372;43.514;1.512;2024-03-02T06:52:48;9.25;;;4.97;;
81908;SDS011;71372;43.514;1.512;2024-03-02T06:55:14;6.07;;;3.30;;
81908;SDS011;71372;43.514;1.512;2024-03-02T06:57:40;4.88;;;3.75;;
81908;SDS011;71372;43.514;1.512;2024-03-02T07:00:06;9.43;;;4.63;;
81908;SDS011;71372;43.514;1.512;2024-03-02T07:02:34;8.93;;;4.60;;
81908;SDS011;71372;43.514;1.512;2024-03-02T07:05:02;9.45;;;4.85;;
81908;SDS011;71372;43.514;1.512;2024-03-02T07:07:29;10.40;;;4.90;;
81908;SDS011;71372;43.514;1.512;2024-03-02T07:09:55;6.13;;;4.57;;
81908;SDS011;71372;43.514;1.512;2024-03-02T07:12:21;6.65;;;4.03;;
81908;SDS011;71372;43.514;1.512;2024-03-02T07:14:47;8.93;;;5.63;;
81908;SDS011;71372;43.514;1.512;2024-03-02T07:17:31;11.00;;;5.57;;
81908;SDS011;71372;43.514;1.512;2024-03-02T07:19:57;9.88;;;4.93;;
81908;SDS011;71372;43.514;1.512;2024-03-02T07:22:23;8.82;;;4.63;;
81908;SDS011;71372;43.514;1.512;2024-03-02T07:24:49;6.13;;;3.63;;
81908;SDS011;71372;43.514;1.512;2024-03-02T07:27:16;9.18;;;3.90;;
81908;SDS011;71372;43.514;1.512;2024-03-02T07:32:09;4.60;;;3.40;;
81908;SDS011;71372;43.514;1.512;2024-03-02T07:34:36;6.18;;;3.28;;
81908;SDS011;71372;43.514;1.512;2024-03-02T07:37:03;4.45;;;3.30;;
81908;SDS011;71372;43.514;1.512;2024-03-02T07:39:29;4.95;;;3.58;;
81908;SDS011;71372;43.514;1.512;2024-03-02T07:41:55;5.45;;;3.90;;
81908;SDS011;71372;43.514;1.512;2024-03-02T07:44:21;6.70;;;3.40;;
81908;SDS011;71372;43.514;1.512;2024-03-02T07:46:48;6.90;;;3.25;;
81908;SDS011;71372;43.514;1.512;2024-03-02T07:49:20;8.25;;;3.45;;
81908;SDS011;71372;43.514;1.512;2024-03-02T07:51:46;5.00;;;2.83;;
81908;SDS011;71372;43.514;1.512;2024-03-02T07:54:12;8.20;;;3.60;;
81908;SDS011;71372;43.514;1.512;2024-03-02T07:56:38;5.45;;;2.97;;
81908;SDS011;71372;43.514;1.512;2024-03-02T07:59:04;4.85;;;3.08;;
81908;SDS011;71372;43.514;1.512;2024-03-02T08:01:30;6.22;;;3.88;;
81908;SDS011;71372;43.514;1.512;2024-03-02T08:03:58;5.43;;;3.17;;
81908;SDS011;71372;43.514;1.512;2024-03-02T08:06:25;5.68;;;2.80;;
81908;SDS011;71372;43.514;1.512;2024-03-02T08:08:58;4.57;;;2.97;;
81908;SDS011;71372;43.514;1.512;2024-03-02T08:11:24;4.63;;;2.58;;
81908;SDS011;71372;43.514;1.512;2024-03-02T08:13:50;5.95;;;2.97;;
81908;SDS011;71372;43.514;1.512;2024-03-02T08:16:18;4.68;;;2.95;;
81908;SDS011;71372;43.514;1.512;2024-03-02T08:18:47;9.30;;;4.15;;
81908;SDS011;71372;43.514;1.512;2024-03-02T08:21:14;5.60;;;3.17;;
81908;SDS011;71372;43.514;1.512;2024-03-02T08:23:40;5.03;;;3.10;;
81908;SDS011;71372;43.514;1.512;2024-03-02T08:26:08;6.43;;;3.03;;
81908;SDS011;71372;43.514;1.512;2024-03-02T08:28:34;4.55;;;2.67;;
81908;SDS011;71372;43.514;1.512;2024-03-02T08:31:03;4.35;;;2.67;;
81908;SDS011;71372;43.514;1.512;2024-03-02T08:33:29;4.88;;;2.85;;
81908;SDS011;71372;43.514;1.512;2024-03-02T08:35:55;5.22;;;2.83;;
81908;SDS011;71372;43.514;1.512;2024-03-02T08:38:22;5.55;;;2.90;;
81908;SDS011;71372;43.514;1.512;2024-03-02T08:40:49;5.70;;;2.45;;
81908;SDS011;71372;43.514;1.512;2024-03-02T08:43:15;6.78;;;2.75;;
81908;SDS011;71372;43.514;1.512;2024-03-02T08:45:41;5.78;;;2.75;;
81908;SDS011;71372;43.514;1.512;2024-03-02T08:48:07;5.45;;;2.60;;
81908;SDS011;71372;43.514;1.512;2024-03-02T08:50:34;5.25;;;2.58;;
81908;SDS011;71372;43.514;1.512;2024-03-02T08:53:01;4.00;;;2.33;;
81908;SDS011;71372;43.514;1.512;2024-03-02T08:55:28;4.32;;;2.47;;
81908;SDS011;71372;43.514;1.512;2024-03-02T08:57:54;6.32;;;2.53;;
81908;SDS011;71372;43.514;1.512;2024-03-02T09:00:20;3.67;;;2.35;;
81908;SDS011;71372;43.514;1.512;2024-03-02T09:02:47;7.43;;;2.50;;
81908;SDS011;71372;43.514;1.512;2024-03-02T09:05:13;6.47;;;2.88;;
81908;SDS011;71372;43.514;1.512;2024-03-02T09:07:39;6.10;;;2.08;;
81908;SDS011;71372;43.514;1.512;2024-03-02T09:10:05;6.07;;;2.50;;
81908;SDS011;71372;43.514;1.512;2024-03-02T09:12:32;4.97;;;2.70;;
81908;SDS011;71372;43.514;1.512;2024-03-02T09:14:59;7.05;;;2.72;;
81908;SDS011;71372;43.514;1.512;2024-03-02T09:19:52;4.10;;;2.20;;
81908;SDS011;71372;43.514;1.512;2024-03-02T09:22:18;6.68;;;2.70;;
81908;SDS011;71372;43.514;1.512;2024-03-02T09:24:45;6.63;;;2.80;;
81908;SDS011;71372;43.514;1.512;2024-03-02T09:27:11;3.65;;;2.72;;
81908;SDS011;71372;43.514;1.512;2024-03-02T09:29:37;5.57;;;2.60;;
81908;SDS011;71372;43.514;1.512;2024-03-02T09:32:04;5.07;;;2.60;;
81908;SDS011;71372;43.514;1.512;2024-03-02T09:34:31;8.38;;;3.38;;
81908;SDS011;71372;43.514;1.512;2024-03-02T09:36:57;6.63;;;2.65;;
81908;SDS011;71372;43.514;1.512;2024-03-02T09:39:24;6.13;;;2.70;;
81908;SDS011;71372;43.514;1.512;2024-03-02T09:41:51;5.55;;;2.58;;
81908;SDS011;71372;43.514;1.512;2024-03-02T09:44:17;6.10;;;2.58;;
81908;SDS011;71372;43.514;1.512;2024-03-02T09:46:43;6.32;;;2.45;;
81908;SDS011;71372;43.514;1.512;2024-03-02T09:49:10;6.20;;;2.53;;
81908;SDS011;71372;43.514;1.512;2024-03-02T09:51:37;5.32;;;2.10;;
81908;SDS011;71372;43.514;1.512;2024-03-02T09:54:03;4.40;;;2.70;;
81908;SDS011;71372;43.514;1.512;2024-03-02T09:56:30;6.07;;;2.70;;
81908;SDS011;71372;43.514;1.512;2024-03-02T09:58:56;11.25;;;2.97;;
81908;SDS011;71372;43.514;1.512;2024-03-02T10:01:22;7.07;;;3.20;;
81908;SDS011;71372;43.514;1.512;2024-03-02T10:03:47;5.53;;;2.63;;
81908;SDS011;71372;43.514;1.512;2024-03-02T10:06:26;8.88;;;3.20;;
81908;SDS011;71372;43.514;1.512;2024-03-02T10:08:54;8.60;;;3.15;;
81908;SDS011;71372;43.514;1.512;2024-03-02T10:11:34;7.03;;;2.55;;
81908;SDS011;71372;43.514;1.512;2024-03-02T10:16:41;7.43;;;2.83;;
81908;SDS011;71372;43.514;1.512;2024-03-02T10:19:20;8.70;;;3.13;;
81908;SDS011;71372;43.514;1.512;2024-03-02T10:21:47;6.75;;;2.80;;
81908;SDS011;71372;43.514;1.512;2024-03-02T10:24:15;6.90;;;2.85;;
81908;SDS011;71372;43.514;1.512;2024-03-02T10:26:41;7.63;;;2.67;;
81908;SDS011;71372;43.514;1.512;2024-03-02T10:29:08;10.18;;;2.95;;
81908;SDS011;71372;43.514;1.512;2024-03-02T10:31:38;7.38;;;2.67;;
81908;SDS011;71372;43.514;1.512;2024-03-02T10:34:05;5.65;;;2.70;;
81908;SDS011;71372;43.514;1.512;2024-03-02T10:36:35;6.93;;;2.80;;
81908;SDS011;71372;43.514;1.512;2024-03-02T10:39:05;7.78;;;2.60;;
81908;SDS011;71372;43.514;1.512;2024-03-02T10:41:33;7.72;;;2.78;;
81908;SDS011;71372;43.514;1.512;2024-03-02T10:44:04;7.60;;;2.70;;
81908;SDS011;71372;43.514;1.512;2024-03-02T10:46:32;9.40;;;3.13;;
81908;SDS011;71372;43.514;1.512;2024-03-02T10:49:00;8.65;;;3.25;;
81908;SDS011;71372;43.514;1.512;2024-03-02T10:51:28;8.85;;;2.78;;
81908;SDS011;71372;43.514;1.512;2024-03-02T10:53:57;6.63;;;2.95;;
81908;SDS011;71372;43.514;1.512;2024-03-02T10:56:30;8.43;;;3.10;;
81908;SDS011;71372;43.514;1.512;2024-03-02T11:01:41;5.93;;;2.80;;
81908;SDS011;71372;43.514;1.512;2024-03-02T11:04:08;5.28;;;3.10;;
81908;SDS011;71372;43.514;1.512;2024-03-02T11:06:38;7.88;;;2.92;;
81908;SDS011;71372;43.514;1.512;2024-03-02T11:09:07;6.60;;;2.70;;
81908;SDS011;71372;43.514;1.512;2024-03-02T11:11:40;6.50;;;2.83;;
81908;SDS011;71372;43.514;1.512;2024-03-02T11:14:09;8.27;;;2.72;;
81908;SDS011;71372;43.514;1.512;2024-03-02T11:16:39;8.38;;;2.85;;
81908;SDS011;71372;43.514;1.512;2024-03-02T11:21:37;7.65;;;3.22;;
81908;SDS011;71372;43.514;1.512;2024-03-02T11:24:27;7.38;;;3.60;;
81908;SDS011;71372;43.514;1.512;2024-03-02T11:26:52;11.95;;;4.85;;
81908;SDS011;71372;43.514;1.512;2024-03-02T11:32:06;11.13;;;4.47;;
81908;SDS011;71372;43.514;1.512;2024-03-02T11:34:40;6.82;;;3.13;;
81908;SDS011;71372;43.514;1.512;2024-03-02T11:37:12;6.30;;;2.90;;
81908;SDS011;71372;43.514;1.512;2024-03-02T11:39:43;8.00;;;3.33;;
81908;SDS011;71372;43.514;1.512;2024-03-02T11:42:10;9.18;;;3.40;;
81908;SDS011;71372;43.514;1.512;2024-03-02T11:44:39;6.82;;;3.10;;
81908;SDS011;71372;43.514;1.512;2024-03-02T11:47:08;8.77;;;3.60;;
81908;SDS011;71372;43.514;1.512;2024-03-02T11:52:14;6.55;;;3.00;;
81908;SDS011;71372;43.514;1.512;2024-03-02T11:54:43;7.18;;;3.00;;
81908;SDS011;71372;43.514;1.512;2024-03-02T11:57:14;7.45;;;2.90;;
81908;SDS011;71372;43.514;1.512;2024-03-02T11:59:45;7.20;;;3.88;;
81908;SDS011;71372;43.514;1.512;2024-03-02T12:02:15;6.88;;;3.00;;
81908;SDS011;71372;43.514;1.512;2024-03-02T12:04:45;7.15;;;2.50;;
81908;SDS011;71372;43.514;1.512;2024-03-02T12:07:19;4.90;;;2.45;;
81908;SDS011;71372;43.514;1.512;2024-03-02T12:09:59;8.65;;;3.03;;
81908;SDS011;71372;43.514;1.512;2024-03-02T12:12:26;6.18;;;2.83;;
81908;SDS011;71372;43.514;1.512;2024-03-02T12:14:53;6.30;;;2.65;;
81908;SDS011;71372;43.514;1.512;2024-03-02T12:17:22;6.63;;;2.65;;
81908;SDS011;71372;43.514;1.512;2024-03-02T12:19:48;8.88;;;3.45;;
81908;SDS011;71372;43.514;1.512;2024-03-02T12:22:14;7.05;;;3.25;;
81908;SDS011;71372;43.514;1.512;2024-03-02T12:24:41;7.05;;;3.08;;
81908;SDS011;71372;43.514;1.512;2024-03-02T12:27:11;6.95;;;3.05;;
81908;SDS011;71372;43.514;1.512;2024-03-02T12:29:37;8.60;;;2.90;;
81908;SDS011;71372;43.514;1.512;2024-03-02T12:32:04;7.55;;;2.60;;
81908;SDS011;71372;43.514;1.512;2024-03-02T12:34:31;6.22;;;3.17;;
81908;SDS011;71372;43.514;1.512;2024-03-02T12:36:57;8.48;;;2.72;;
81908;SDS011;71372;43.514;1.512;2024-03-02T12:39:23;7.05;;;2.63;;
81908;SDS011;71372;43.514;1.512;2024-03-02T12:41:49;6.43;;;2.65;;
81908;SDS011;71372;43.514;1.512;2024-03-02T12:44:16;4.50;;;2.80;;
81908;SDS011;71372;43.514;1.512;2024-03-02T12:46:43;6.15;;;2.55;;
81908;SDS011;71372;43.514;1.512;2024-03-02T12:49:11;4.68;;;2.38;;
81908;SDS011;71372;43.514;1.512;2024-03-02T12:51:39;6.28;;;2.13;;
81908;SDS011;71372;43.514;1.512;2024-03-02T12:54:07;7.30;;;2.95;;
81908;SDS011;71372;43.514;1.512;2024-03-02T12:56:33;5.65;;;2.15;;
81908;SDS011;71372;43.514;1.512;2024-03-02T12:59:01;6.38;;;2.22;;
81908;SDS011;71372;43.514;1.512;2024-03-02T13:01:27;7.95;;;2.47;;
81908;SDS011;71372;43.514;1.512;2024-03-02T13:03:53;6.13;;;2.35;;
81908;SDS011;71372;43.514;1.512;2024-03-02T13:06:21;4.35;;;2.35;;
81908;SDS011;71372;43.514;1.512;2024-03-02T13:08:47;4.57;;;2.50;;
81908;SDS011;71372;43.514;1.512;2024-03-02T13:11:14;5.60;;;2.25;;
81908;SDS011;71372;43.514;1.512;2024-03-02T13:13:41;7.82;;;2.25;;
81908;SDS011;71372;43.514;1.512;2024-03-02T13:16:11;8.63;;;2.20;;
81908;SDS011;71372;43.514;1.512;2024-03-02T13:18:39;6.13;;;2.33;;
81908;SDS011;71372;43.514;1.512;2024-03-02T13:21:08;6.32;;;2.17;;
81908;SDS011;71372;43.514;1.512;2024-03-02T13:23:34;6.97;;;2.35;;
81908;SDS011;71372;43.514;1.512;2024-03-02T13:26:00;6.43;;;2.33;;
81908;SDS011;71372;43.514;1.512;2024-03-02T13:28:27;3.63;;;1.98;;
81908;SDS011;71372;43.514;1.512;2024-03-02T13:30:53;6.55;;;2.40;;
81908;SDS011;71372;43.514;1.512;2024-03-02T13:33:22;7.30;;;2.10;;
81908;SDS011;71372;43.514;1.512;2024-03-02T13:35:51;5.32;;;2.05;;
81908;SDS011;71372;43.514;1.512;2024-03-02T13:38:18;4.28;;;2.10;;
81908;SDS011;71372;43.514;1.512;2024-03-02T13:40:45;5.50;;;2.22;;
81908;SDS011;71372;43.514;1.512;2024-03-02T13:43:12;8.02;;;2.10;;
81908;SDS011;71372;43.514;1.512;2024-03-02T13:45:38;5.45;;;1.83;;
81908;SDS011;71372;43.514;1.512;2024-03-02T13:48:04;8.73;;;2.60;;
81908;SDS011;71372;43.514;1.512;2024-03-02T13:50:31;7.18;;;2.42;;
81908;SDS011;71372;43.514;1.512;2024-03-02T13:52:58;5.80;;;2.20;;
81908;SDS011;71372;43.514;1.512;2024-03-02T13:55:24;5.45;;;2.47;;
81908;SDS011;71372;43.514;1.512;2024-03-02T13:57:49;5.35;;;2.20;;
81908;SDS011;71372;43.514;1.512;2024-03-02T14:00:16;5.18;;;2.00;;
81908;SDS011;71372;43.514;1.512;2024-03-02T14:02:43;8.73;;;2.15;;
81908;SDS011;71372;43.514;1.512;2024-03-02T14:05:10;5.95;;;2.30;;
81908;SDS011;71372;43.514;1.512;2024-03-02T14:07:37;6.57;;;2.22;;
81908;SDS011;71372;43.514;1.512;2024-03-02T14:10:04;6.07;;;1.95;;
81908;SDS011;71372;43.514;1.512;2024-03-02T14:12:30;4.03;;;2.15;;
81908;SDS011;71372;43.514;1.512;2024-03-02T14:14:57;5.18;;;2.30;;
81908;SDS011;71372;43.514;1.512;2024-03-02T14:17:28;6.25;;;2.20;;
81908;SDS011;71372;43.514;1.512;2024-03-02T14:19:54;7.20;;;2.92;;
81908;SDS011;71372;43.514;1.512;2024-03-02T14:22:20;5.90;;;1.90;;
81908;SDS011;71372;43.514;1.512;2024-03-02T14:24:46;6.22;;;2.30;;
81908;SDS011;71372;43.514;1.512;2024-03-02T14:27:14;5.90;;;2.03;;
81908;SDS011;71372;43.514;1.512;2024-03-02T14:29:41;5.57;;;2.15;;
81908;SDS011;71372;43.514;1.512;2024-03-02T14:32:07;7.22;;;2.20;;
81908;SDS011;71372;43.514;1.512;2024-03-02T14:34:33;9.52;;;2.22;;
81908;SDS011;71372;43.514;1.512;2024-03-02T14:36:59;3.97;;;2.00;;
81908;SDS011;71372;43.514;1.512;2024-03-02T14:39:26;7.97;;;2.03;;
81908;SDS011;71372;43.514;1.512;2024-03-02T14:41:52;5.15;;;1.70;;
81908;SDS011;71372;43.514;1.512;2024-03-02T14:44:18;6.75;;;2.10;;
81908;SDS011;71372;43.514;1.512;2024-03-02T14:46:47;6.47;;;2.47;;
81908;SDS011;71372;43.514;1.512;2024-03-02T14:49:14;6.75;;;2.05;;
81908;SDS011;71372;43.514;1.512;2024-03-02T14:51:41;4.65;;;1.73;;
81908;SDS011;71372;43.514;1.512;2024-03-02T14:54:06;6.70;;;2.10;;
81908;SDS011;71372;43.514;1.512;2024-03-02T14:56:32;5.05;;;2.28;;
81908;SDS011;71372;43.514;1.512;2024-03-02T14:58:58;4.43;;;2.05;;
81908;SDS011;71372;43.514;1.512;2024-03-02T15:01:24;5.72;;;2.40;;
81908;SDS011;71372;43.514;1.512;2024-03-02T15:03:50;4.90;;;2.30;;
81908;SDS011;71372;43.514;1.512;2024-03-02T15:06:17;6.20;;;2.08;;